BAW1EN EDDM-BIKF
Flight info
| Callsign | BAW1EN |
|---|---|
| Flight time | N/A |
| Altitude | 50000 |
| Route | INPUD3Q/08L INPUD Y102 ALIBU L604 RELBI L602 PREXA/N0445F380 L602 SUPUR P1 GODOS/N0365F240 P1 ROKAN/N0443F380 DCT NEXUS DCT RUGID DCT RATSU/M077F380 DCT VM |
| Aircraft | CONC/M-SDE2E3FGHIRWXY/LB1 |
Departure
| Time | N/A |
|---|---|
| Airport | Munich Airport (EDDM) |
Arrival
| Time | 2026-04-28 18:19 |
|---|---|
| Airport | Keflavik International Airport (BIKF) |
| Time | Latitude | Longitude | Altitude | Speed | Heading |
|---|---|---|---|---|---|
| 2026-04-28 17:27 | 61.41329 | -11.46146 | 56838 ft | 856 kts | 298° |
| 2026-04-28 17:27 | 61.44340 | -11.57164 | 56053 ft | 869 kts | 298° |
| 2026-04-28 17:27 | 61.47337 | -11.68186 | 55240 ft | 870 kts | 297° |
| 2026-04-28 17:27 | 61.50295 | -11.79113 | 54410 ft | 854 kts | 297° |
| 2026-04-28 17:28 | 61.53150 | -11.89721 | 53591 ft | 838 kts | 297° |
| 2026-04-28 17:28 | 61.58732 | -12.10606 | 51915 ft | 804 kts | 297° |
| 2026-04-28 17:28 | 61.61428 | -12.20762 | 51091 ft | 786 kts | 297° |
| 2026-04-28 17:29 | 61.64052 | -12.30694 | 50248 ft | 768 kts | 297° |
| 2026-04-28 17:29 | 61.66608 | -12.40408 | 49459 ft | 750 kts | 296° |
| 2026-04-28 17:29 | 61.69100 | -12.49919 | 48648 ft | 732 kts | 296° |
| 2026-04-28 17:30 | 61.73892 | -12.68327 | 47020 ft | 702 kts | 296° |
| 2026-04-28 17:30 | 61.78491 | -12.86137 | 45393 ft | 680 kts | 296° |
| 2026-04-28 17:30 | 61.80703 | -12.94753 | 44578 ft | 670 kts | 296° |
| 2026-04-28 17:31 | 61.82903 | -13.03351 | 43691 ft | 660 kts | 295° |
| 2026-04-28 17:31 | 61.87178 | -13.20164 | 42040 ft | 635 kts | 294° |
| 2026-04-28 17:32 | 61.91260 | -13.36336 | 40520 ft | 611 kts | 293° |
| 2026-04-28 17:32 | 61.93234 | -13.44203 | 39783 ft | 596 kts | 292° |
| 2026-04-28 17:32 | 61.95152 | -13.51862 | 39070 ft | 577 kts | 292° |
| 2026-04-28 17:32 | 61.97003 | -13.59298 | 38246 ft | 564 kts | 292° |
| 2026-04-28 17:33 | 61.98787 | -13.66493 | 37370 ft | 553 kts | 291° |
| 2026-04-28 17:33 | 62.00585 | -13.73751 | 36517 ft | 541 kts | 291° |
| 2026-04-28 17:33 | 62.02298 | -13.80698 | 35778 ft | 535 kts | 291° |
| 2026-04-28 17:33 | 62.03467 | -13.85438 | 35266 ft | 532 kts | 291° |
| 2026-04-28 17:34 | 62.05725 | -13.94641 | 34294 ft | 526 kts | 291° |
| 2026-04-28 17:34 | 62.07409 | -14.01530 | 33468 ft | 521 kts | 291° |
| 2026-04-28 17:34 | 62.09074 | -14.08359 | 32733 ft | 515 kts | 290° |
| 2026-04-28 17:34 | 62.10721 | -14.15146 | 32457 ft | 519 kts | 290° |
| 2026-04-28 17:35 | 62.12387 | -14.22014 | 32310 ft | 518 kts | 290° |
| 2026-04-28 17:35 | 62.14013 | -14.28747 | 32234 ft | 515 kts | 290° |
| 2026-04-28 17:35 | 62.17284 | -14.42368 | 32179 ft | 516 kts | 290° |
| 2026-04-28 17:36 | 62.20558 | -14.56068 | 32167 ft | 517 kts | 290° |
| 2026-04-28 17:36 | 62.23818 | -14.69804 | 32174 ft | 518 kts | 289° |
| 2026-04-28 17:37 | 62.27077 | -14.83625 | 32148 ft | 519 kts | 289° |
| 2026-04-28 17:37 | 62.30300 | -14.97379 | 32150 ft | 519 kts | 289° |
| 2026-04-28 17:38 | 62.33536 | -15.11266 | 32145 ft | 519 kts | 288° |
| 2026-04-28 17:38 | 62.36742 | -15.25139 | 32137 ft | 517 kts | 288° |
| 2026-04-28 17:39 | 62.39940 | -15.39054 | 32132 ft | 519 kts | 288° |
| 2026-04-28 17:40 | 62.44695 | -15.59904 | 32120 ft | 518 kts | 288° |
| 2026-04-28 17:40 | 62.47862 | -15.73911 | 32107 ft | 519 kts | 288° |
| 2026-04-28 17:41 | 62.51014 | -15.87942 | 32097 ft | 519 kts | 288° |
| 2026-04-28 17:41 | 62.52385 | -15.94072 | 32096 ft | 519 kts | 288° |
| 2026-04-28 17:42 | 62.52581 | -15.94951 | 32158 ft | 519 kts | 287° |
| 2026-04-28 17:42 | 62.52776 | -15.95823 | 32151 ft | 519 kts | 287° |
| 2026-04-28 17:43 | 62.52968 | -15.96681 | 32148 ft | 519 kts | 287° |
| 2026-04-28 17:43 | 62.53165 | -15.97560 | 32144 ft | 519 kts | 287° |
| 2026-04-28 17:44 | 62.53362 | -15.98442 | 32142 ft | 521 kts | 287° |
| 2026-04-28 17:44 | 62.53458 | -15.98872 | 31625 ft | 522 kts | 287° |
| 2026-04-28 17:44 | 62.53557 | -15.99315 | 31625 ft | 523 kts | 289° |
| 2026-04-28 17:45 | 62.54597 | -16.04122 | 31795 ft | 538 kts | 295° |
| 2026-04-28 17:45 | 62.55414 | -16.07830 | 31872 ft | 552 kts | 296° |
| 2026-04-28 17:45 | 62.56270 | -16.11605 | 31919 ft | 565 kts | 296° |
| 2026-04-28 17:45 | 62.58006 | -16.19324 | 31966 ft | 582 kts | 295° |
| 2026-04-28 17:46 | 62.59682 | -16.26949 | 31992 ft | 595 kts | 295° |
| 2026-04-28 17:46 | 62.61405 | -16.34838 | 31986 ft | 560 kts | 295° |
| 2026-04-28 17:46 | 62.63045 | -16.42357 | 31997 ft | 543 kts | 295° |
| 2026-04-28 17:47 | 62.66267 | -16.57177 | 31998 ft | 544 kts | 295° |
| 2026-04-28 17:47 | 62.69470 | -16.72008 | 31997 ft | 544 kts | 295° |
| 2026-04-28 17:48 | 62.72679 | -16.86967 | 31994 ft | 546 kts | 295° |
| 2026-04-28 17:48 | 62.75876 | -17.01984 | 31995 ft | 546 kts | 295° |
| 2026-04-28 17:49 | 62.79064 | -17.17065 | 31997 ft | 547 kts | 294° |
| 2026-04-28 17:49 | 62.82231 | -17.32157 | 31997 ft | 547 kts | 294° |
| 2026-04-28 17:50 | 62.85375 | -17.47248 | 32000 ft | 548 kts | 294° |
| 2026-04-28 17:50 | 62.88522 | -17.62461 | 31998 ft | 548 kts | 294° |
| 2026-04-28 17:51 | 62.91650 | -17.77699 | 32000 ft | 548 kts | 294° |
| 2026-04-28 17:51 | 62.94768 | -17.93000 | 31998 ft | 549 kts | 294° |
| 2026-04-28 17:52 | 62.97870 | -18.08337 | 31999 ft | 549 kts | 294° |
| 2026-04-28 17:52 | 63.02493 | -18.31406 | 31993 ft | 549 kts | 294° |
| 2026-04-28 17:53 | 63.05535 | -18.46735 | 31994 ft | 550 kts | 293° |
| 2026-04-28 17:53 | 63.08583 | -18.62202 | 31993 ft | 550 kts | 293° |
| 2026-04-28 17:54 | 63.11612 | -18.77701 | 31997 ft | 550 kts | 293° |
| 2026-04-28 17:54 | 63.14388 | -18.93412 | 32037 ft | 549 kts | 279° |
| 2026-04-28 17:55 | 63.14652 | -19.01821 | 32094 ft | 551 kts | 268° |
| 2026-04-28 17:55 | 63.14453 | -19.10349 | 31368 ft | 557 kts | 266° |
| 2026-04-28 17:55 | 63.14195 | -19.18746 | 30622 ft | 550 kts | 266° |
| 2026-04-28 17:55 | 63.14141 | -19.27119 | 29876 ft | 542 kts | 278° |
| 2026-04-28 17:56 | 63.15085 | -19.35058 | 29215 ft | 528 kts | 293° |
| 2026-04-28 17:56 | 63.16636 | -19.42284 | 28475 ft | 513 kts | 297° |
| 2026-04-28 17:56 | 63.18311 | -19.49165 | 27712 ft | 501 kts | 299° |
| 2026-04-28 17:56 | 63.19998 | -19.55811 | 26948 ft | 490 kts | 300° |
| 2026-04-28 17:57 | 63.21674 | -19.62310 | 26192 ft | 482 kts | 300° |
| 2026-04-28 17:57 | 63.23331 | -19.68694 | 25417 ft | 474 kts | 300° |
| 2026-04-28 17:57 | 63.24967 | -19.74979 | 24649 ft | 467 kts | 300° |
| 2026-04-28 17:57 | 63.26556 | -19.81090 | 23894 ft | 460 kts | 300° |
| 2026-04-28 17:58 | 63.28143 | -19.87195 | 23130 ft | 454 kts | 300° |
| 2026-04-28 17:58 | 63.29711 | -19.93240 | 22364 ft | 448 kts | 300° |
| 2026-04-28 17:58 | 63.31256 | -19.99201 | 21603 ft | 442 kts | 300° |
| 2026-04-28 17:58 | 63.32783 | -20.05109 | 20838 ft | 437 kts | 300° |
| 2026-04-28 17:59 | 63.34283 | -20.10919 | 20078 ft | 433 kts | 300° |
| 2026-04-28 17:59 | 63.35777 | -20.16721 | 19307 ft | 428 kts | 300° |
| 2026-04-28 17:59 | 63.37250 | -20.22450 | 18540 ft | 424 kts | 300° |
| 2026-04-28 17:59 | 63.38707 | -20.28129 | 17784 ft | 420 kts | 300° |
| 2026-04-28 18:00 | 63.40130 | -20.33683 | 17033 ft | 416 kts | 300° |
| 2026-04-28 18:00 | 63.41557 | -20.39265 | 16271 ft | 412 kts | 300° |
| 2026-04-28 18:00 | 63.42972 | -20.44809 | 15512 ft | 409 kts | 299° |
| 2026-04-28 18:00 | 63.44372 | -20.50303 | 14747 ft | 406 kts | 299° |
| 2026-04-28 18:01 | 63.45761 | -20.55766 | 13997 ft | 403 kts | 299° |
| 2026-04-28 18:01 | 63.47139 | -20.61194 | 13238 ft | 400 kts | 299° |
| 2026-04-28 18:01 | 63.48505 | -20.66584 | 12474 ft | 397 kts | 299° |
| 2026-04-28 18:01 | 63.49861 | -20.71945 | 11707 ft | 394 kts | 299° |
| 2026-04-28 18:02 | 63.51204 | -20.77261 | 10954 ft | 391 kts | 299° |
| 2026-04-28 18:02 | 63.52515 | -20.82462 | 10415 ft | 384 kts | 299° |
| 2026-04-28 18:02 | 63.53802 | -20.87575 | 10187 ft | 368 kts | 299° |
| 2026-04-28 18:02 | 63.55028 | -20.92452 | 10090 ft | 351 kts | 299° |
| 2026-04-28 18:03 | 63.56215 | -20.97180 | 10041 ft | 347 kts | 299° |
| 2026-04-28 18:03 | 63.57400 | -21.01906 | 10033 ft | 348 kts | 299° |
| 2026-04-28 18:03 | 63.58582 | -21.06629 | 10022 ft | 347 kts | 299° |
| 2026-04-28 18:03 | 63.59764 | -21.11363 | 10021 ft | 347 kts | 299° |
| 2026-04-28 18:04 | 63.60946 | -21.16097 | 9982 ft | 348 kts | 299° |
| 2026-04-28 18:04 | 63.62123 | -21.20826 | 9247 ft | 354 kts | 299° |
| 2026-04-28 18:04 | 63.63332 | -21.25685 | 8492 ft | 357 kts | 299° |
| 2026-04-28 18:04 | 63.64680 | -21.30381 | 7728 ft | 360 kts | 314° |
| 2026-04-28 18:05 | 63.66536 | -21.34172 | 6992 ft | 361 kts | 321° |
| 2026-04-28 18:05 | 63.67867 | -21.36528 | 6629 ft | 358 kts | 322° |
| 2026-04-28 18:05 | 63.70448 | -21.40865 | 6317 ft | 341 kts | 323° |
| 2026-04-28 18:05 | 63.72333 | -21.43957 | 6217 ft | 326 kts | 324° |
| 2026-04-28 18:06 | 63.74139 | -21.46896 | 6179 ft | 318 kts | 324° |
| 2026-04-28 18:06 | 63.75944 | -21.49825 | 6164 ft | 320 kts | 324° |
| 2026-04-28 18:06 | 63.77746 | -21.52749 | 6160 ft | 318 kts | 324° |
| 2026-04-28 18:06 | 63.79548 | -21.55675 | 6159 ft | 319 kts | 324° |
| 2026-04-28 18:07 | 63.81323 | -21.58560 | 6157 ft | 319 kts | 324° |
| 2026-04-28 18:07 | 63.83121 | -21.61489 | 6162 ft | 318 kts | 324° |
| 2026-04-28 18:07 | 63.84917 | -21.64418 | 6158 ft | 318 kts | 324° |
| 2026-04-28 18:07 | 63.86713 | -21.67353 | 6160 ft | 318 kts | 324° |
| 2026-04-28 18:08 | 63.88507 | -21.70289 | 6141 ft | 318 kts | 324° |
| 2026-04-28 18:08 | 63.90335 | -21.73287 | 5404 ft | 328 kts | 324° |
| 2026-04-28 18:08 | 63.92205 | -21.76361 | 4721 ft | 334 kts | 324° |
| 2026-04-28 18:08 | 63.94067 | -21.79426 | 4393 ft | 327 kts | 323° |
| 2026-04-28 18:09 | 63.95862 | -21.82386 | 4257 ft | 314 kts | 323° |
| 2026-04-28 18:09 | 63.97619 | -21.85285 | 4208 ft | 313 kts | 323° |
| 2026-04-28 18:09 | 63.99364 | -21.88080 | 4249 ft | 325 kts | 321° |
| 2026-04-28 18:09 | 64.01253 | -21.90820 | 4106 ft | 316 kts | 323° |
| 2026-04-28 18:10 | 64.03115 | -21.93400 | 4043 ft | 312 kts | 323° |
| 2026-04-28 18:10 | 64.04951 | -21.95894 | 4033 ft | 299 kts | 323° |
| 2026-04-28 18:10 | 64.06697 | -21.98218 | 4040 ft | 284 kts | 324° |
| 2026-04-28 18:10 | 64.08394 | -22.00466 | 4050 ft | 284 kts | 324° |
| 2026-04-28 18:11 | 64.10101 | -22.02743 | 4058 ft | 283 kts | 324° |
| 2026-04-28 18:11 | 64.11795 | -22.05007 | 4053 ft | 281 kts | 323° |
| 2026-04-28 18:11 | 64.13418 | -22.07393 | 3634 ft | 283 kts | 308° |
| 2026-04-28 18:11 | 64.14538 | -22.10939 | 3210 ft | 267 kts | 292° |
| 2026-04-28 18:12 | 64.15402 | -22.14622 | 3096 ft | 261 kts | 290° |
| 2026-04-28 18:12 | 64.16215 | -22.18328 | 3057 ft | 255 kts | 289° |
| 2026-04-28 18:12 | 64.16991 | -22.21917 | 3036 ft | 251 kts | 289° |
| 2026-04-28 18:12 | 64.17755 | -22.25525 | 3031 ft | 250 kts | 288° |
| 2026-04-28 18:13 | 64.18507 | -22.29111 | 3025 ft | 250 kts | 288° |
| 2026-04-28 18:13 | 64.19258 | -22.32716 | 3017 ft | 250 kts | 288° |
| 2026-04-28 18:13 | 64.19916 | -22.36312 | 2998 ft | 243 kts | 276° |
| 2026-04-28 18:13 | 64.20232 | -22.39962 | 2997 ft | 229 kts | 271° |
| 2026-04-28 18:14 | 64.20448 | -22.43591 | 3014 ft | 228 kts | 269° |
| 2026-04-28 18:14 | 64.20548 | -22.47173 | 3038 ft | 226 kts | 266° |
| 2026-04-28 18:14 | 64.20582 | -22.50738 | 2959 ft | 217 kts | 246° |
| 2026-04-28 18:14 | 64.19784 | -22.53426 | 3031 ft | 205 kts | 206° |
| 2026-04-28 18:15 | 64.18465 | -22.54659 | 3041 ft | 207 kts | 198° |
| 2026-04-28 18:15 | 64.17096 | -22.55600 | 3030 ft | 201 kts | 196° |
| 2026-04-28 18:15 | 64.15748 | -22.56396 | 2992 ft | 202 kts | 194° |
| 2026-04-28 18:15 | 64.14382 | -22.57105 | 2992 ft | 201 kts | 193° |
| 2026-04-28 18:16 | 64.13009 | -22.57736 | 2994 ft | 202 kts | 192° |
| 2026-04-28 18:16 | 64.11632 | -22.58332 | 2730 ft | 205 kts | 192° |
| 2026-04-28 18:16 | 64.10248 | -22.58910 | 2417 ft | 201 kts | 191° |
| 2026-04-28 18:16 | 64.08858 | -22.59407 | 2130 ft | 203 kts | 190° |
| 2026-04-28 18:17 | 64.07455 | -22.59833 | 1859 ft | 204 kts | 189° |
| 2026-04-28 18:17 | 64.06051 | -22.60206 | 1579 ft | 204 kts | 188° |
| 2026-04-28 18:17 | 64.04631 | -22.60462 | 1305 ft | 204 kts | 186° |
| 2026-04-28 18:17 | 64.03220 | -22.60597 | 1040 ft | 202 kts | 185° |
| 2026-04-28 18:18 | 64.01850 | -22.60641 | 675 ft | 193 kts | 184° |
| 2026-04-28 18:18 | 64.00470 | -22.60617 | 449 ft | 201 kts | 181° |
| 2026-04-28 18:18 | 63.99107 | -22.60529 | 192 ft | 192 kts | 184° |
| 2026-04-28 18:18 | 63.98268 | -22.60554 | 160 ft | 148 kts | 183° |
| 2026-04-28 18:19 | 63.97567 | -22.60552 | 155 ft | 38 kts | 180° |
| 2026-04-28 18:19 | 63.97435 | -22.60686 | 152 ft | 10 kts | 276° |
| 2026-04-28 18:19 | 63.97451 | -22.60821 | 152 ft | 7 kts | 282° |
| 2026-04-28 18:19 | 63.97469 | -22.60897 | 152 ft | 4 kts | 314° |
| 2026-04-28 18:20 | 63.97494 | -22.60924 | 152 ft | 5 kts | 338° |
| 2026-04-28 18:20 | 63.97537 | -22.60939 | 152 ft | 9 kts | 353° |
| 2026-04-28 18:20 | 63.97611 | -22.60943 | 153 ft | 14 kts | 359° |
| 2026-04-28 18:20 | 63.97739 | -22.60945 | 154 ft | 23 kts | 0° |
| 2026-04-28 18:21 | 63.97930 | -22.60948 | 155 ft | 32 kts | 360° |
| 2026-04-28 18:21 | 63.98178 | -22.60946 | 157 ft | 39 kts | 0° |
| 2026-04-28 18:21 | 63.98472 | -22.60939 | 157 ft | 45 kts | 359° |
| 2026-04-28 18:21 | 63.98788 | -22.60949 | 163 ft | 45 kts | 358° |
| 2026-04-28 18:22 | 63.99058 | -22.60943 | 169 ft | 36 kts | 0° |
| 2026-04-28 18:22 | 63.99172 | -22.61087 | 170 ft | 18 kts | 269° |
| 2026-04-28 18:22 | 63.99172 | -22.61446 | 169 ft | 27 kts | 270° |
| 2026-04-28 18:22 | 63.99173 | -22.61924 | 167 ft | 21 kts | 274° |
| 2026-04-28 18:23 | 63.99249 | -22.61989 | 168 ft | 15 kts | 357° |
| 2026-04-28 18:23 | 63.99326 | -22.62099 | 168 ft | 14 kts | 276° |
| 2026-04-28 18:23 | 63.99325 | -22.62172 | 168 ft | 0 kts | 268° |